ADDS TAF Board (Experimental) INFO Settings
IDs: Format: Expanded Condensed

KATL - Atlanta/Hartsfield-J, GA, US

Issued at 1601 UTC 31 Jul 2015
Updated at: 1726 UTC 31 Jul 2015
Time1652Z 31/18Z 31/19Z 31/20Z 31/21Z 31/22Z 31/23Z 01/00Z 01/01Z 01/02Z 01/03Z 01/04Z 01/05Z 01/06Z
Type OBS PRVL PRVL PRVL PRVL PRVL PRVL PRVL PRVL PRVL PRVL PRVL PRVL PRVL
VIS 10 >6 >6 >6 >6 >6 >6 >6 >6 >6 >6 >6 >6 >6
CIG 45 -- -- -- -- -- -- -- -- -- -- -- -- --
Cover BKN FEW FEW SCT SCT SCT SCT SCT SCT SCT SCT SCT SCT SCT
FltCat VFR VFR VFR VFR VFR VFR VFR VFR VFR VFR VFR VFR VFR VFR
WX -- -- -- -- -- -- -- -- -- -- -- -- -- --
WDir 80 50 50 350 350 350 350 340 340 340 340 340 340 340
WSpd 8 8 8 7 7 7 7 6 6 6 6 6 6 6
WGst -- -- -- -- -- -- -- -- -- -- -- -- -- --
R08/26
XWnd 1 5 5 7 7 7 7 6 6 6 6 6 6 6
HWnd 8 6 6 -1 -1 -1 -1 -2 -2 -2 -2 -2 -2 -2
R09/27
XWnd 1 5 5 7 7 7 7 6 6 6 6 6 6 6
HWnd 8 6 6 -1 -1 -1 -1 -2 -2 -2 -2 -2 -2 -2
R10/28
XWnd 1 5 5 7 7 7 7 6 6 6 6 6 6 6
HWnd 8 6 6 -1 -1 -1 -1 -2 -2 -2 -2 -2 -2 -2

NOTE: TEMPO conditions in [brackets]. Keep in mind TEMPO conditions might be better (lower impact) than prevailing conditions.

Raw TAF
KATL 311601Z 3116/0118 05008KT P6SM FEW030
  FM312000 35007KT P6SM SCT050
  FM010000 34006KT P6SM SCT080
  FM011100 01005KT P6SM FEW250
  FM011600 05006KT P6SM FEW040


Raw METAR
KATL 311652Z 08008KT 10SM SCT035 BKN045 BKN250 31/22 A3000 RMK AO2 SLP146 T03060222
KATL 311552Z 11008KT 10SM FEW040 SCT250 31/22 A2999 RMK AO2 SLP144 T03060222
KATL 311452Z 05008KT 10SM FEW250 29/22 A2999 RMK AO2 SLP143 T02940217 50002

METAR Board
Radar Display
Forecast Discussion

TAF Board Legend

Potential Impact
Threat None Slight Moderate High
Visibility (sm) ≥5.1 5.1>X≥3 3>X≥1 <1
Ceiling (100 ft) ≥30.1 30.1>X≥10 10>X≥5 <5
Wind Speed (kt) <10 10≤X<20 20≤X<30 ≥30
Wind Gust (kt) <15 15≤X<25 25≤X<35 ≥35
Weather No Wx Reported VCTS,-TS,-FZRA,SN TS,FZRA +TS,+FZRA,+SN